createdAt,value
2019-02-22T00:01:16.044Z,21.13
2019-02-22T00:03:44.836Z,21.13
2019-02-22T00:06:13.889Z,22.87
2019-02-22T00:08:42.685Z,23.00
2019-02-22T00:11:11.478Z,22.10
2019-02-22T00:13:40.357Z,21.90
2019-02-22T00:16:09.302Z,22.57
2019-02-22T00:18:38.174Z,21.77
2019-02-22T00:21:07.064Z,21.93
2019-02-22T00:23:35.854Z,22.87
2019-02-22T00:26:04.889Z,22.43
2019-02-22T00:28:33.721Z,21.73
2019-02-22T00:31:02.580Z,22.90
2019-02-22T00:33:31.019Z,23.43
2019-02-22T00:35:59.845Z,22.97
2019-02-22T00:38:28.671Z,22.50
2019-02-22T00:40:57.585Z,22.87
2019-02-22T00:43:26.560Z,22.57
2019-02-22T00:45:55.431Z,23.63
2019-02-22T00:48:24.534Z,23.40
2019-02-22T00:50:53.475Z,21.93
2019-02-22T00:53:22.253Z,23.47
2019-02-22T00:55:51.041Z,21.63
2019-02-22T00:58:19.820Z,24.67
2019-02-22T01:00:48.681Z,22.60
2019-02-22T01:03:17.468Z,22.70
2019-02-22T01:05:46.260Z,22.07
2019-02-22T01:08:15.042Z,21.87
2019-02-22T01:10:44.076Z,21.13
2019-02-22T01:13:12.865Z,21.53
2019-02-22T01:15:41.868Z,22.70
2019-02-22T01:18:10.742Z,19.80
2019-02-22T01:20:39.841Z,20.50
2019-02-22T01:23:08.620Z,18.77
2019-02-22T01:25:37.403Z,20.63
2019-02-22T01:28:06.197Z,21.00
2019-02-22T01:30:35.077Z,21.07
2019-02-22T01:33:03.886Z,21.87
2019-02-22T01:35:33.065Z,20.33
2019-02-22T01:38:01.866Z,20.27
2019-02-22T01:40:42.642Z,21.23
2019-02-22T01:43:01.399Z,19.53
2019-02-22T01:45:30.248Z,20.50
2019-02-22T01:47:59.052Z,19.37
2019-02-22T01:50:27.948Z,20.00
2019-02-22T01:52:56.972Z,21.27
2019-02-22T01:55:25.750Z,21.10
2019-02-22T01:57:54.545Z,22.20
2019-02-22T02:00:23.394Z,19.87
2019-02-22T02:02:52.204Z,21.07
2019-02-22T02:05:21.044Z,19.97
2019-02-22T02:07:49.909Z,20.53
2019-02-22T02:10:19.113Z,20.87
2019-02-22T02:12:47.883Z,23.20
2019-02-22T02:15:16.757Z,21.13
2019-02-22T02:17:45.781Z,24.33
2019-02-22T02:20:14.682Z,22.83
2019-02-22T02:22:43.526Z,21.40
2019-02-22T02:25:12.393Z,21.53
2019-02-22T02:27:41.175Z,22.37
2019-02-22T02:30:10.269Z,21.90
2019-02-22T02:32:39.153Z,21.97
2019-02-22T02:35:08.144Z,20.67
2019-02-22T02:37:36.937Z,22.73
2019-02-22T02:40:06.521Z,21.27
2019-02-22T02:42:35.320Z,20.37
2019-02-22T02:45:04.589Z,20.03
2019-02-22T02:47:33.387Z,18.70
2019-02-22T02:50:02.212Z,19.67
2019-02-22T02:52:31.080Z,19.60
2019-02-22T02:54:59.944Z,18.33
2019-02-22T02:57:28.719Z,18.13
2019-02-22T02:59:57.576Z,20.57
2019-02-22T03:02:28.567Z,19.47
2019-02-22T03:04:57.343Z,17.50
2019-02-22T03:07:42.875Z,19.13
2019-02-22T03:10:11.800Z,17.40
2019-02-22T03:12:40.635Z,16.97
2019-02-22T03:15:10.983Z,18.73
2019-02-22T03:17:39.762Z,18.77
2019-02-22T03:20:09.265Z,17.47
2019-02-22T03:22:38.038Z,16.13
2019-02-22T03:25:07.149Z,17.23
2019-02-22T03:27:37.725Z,17.90
2019-02-22T03:30:06.870Z,17.50
2019-02-22T03:32:35.650Z,17.83
2019-02-22T03:35:04.613Z,15.50
2019-02-22T03:37:33.384Z,16.50
2019-02-22T03:40:02.263Z,16.63
2019-02-22T03:42:31.100Z,16.17
2019-02-22T03:44:59.884Z,16.10
2019-02-22T03:47:28.919Z,16.43
2019-02-22T03:49:57.777Z,16.13
2019-02-22T03:52:34.065Z,15.97
2019-02-22T03:55:03.236Z,16.33
2019-02-22T03:57:32.082Z,16.20
2019-02-22T04:00:00.956Z,16.90
2019-02-22T04:02:29.730Z,17.33
2019-02-22T04:04:58.595Z,17.73
2019-02-22T04:07:27.429Z,17.37
2019-02-22T04:09:56.214Z,19.20
2019-02-22T04:12:25.144Z,16.50
2019-02-22T04:14:54.078Z,15.13
2019-02-22T04:17:22.861Z,16.43
2019-02-22T04:19:51.729Z,15.40
2019-02-22T04:22:20.500Z,16.20
2019-02-22T04:24:49.289Z,16.07
2019-02-22T04:27:18.068Z,17.57
2019-02-22T04:29:46.925Z,17.10
2019-02-22T04:32:15.712Z,15.07
2019-02-22T04:34:44.484Z,16.37
2019-02-22T04:37:13.274Z,16.23
2019-02-22T04:39:42.053Z,16.37
2019-02-22T04:42:10.861Z,17.27
2019-02-22T04:44:39.647Z,14.23
2019-02-22T04:47:08.429Z,14.87
2019-02-22T04:49:37.201Z,14.27
2019-02-22T04:52:06.224Z,14.33
2019-02-22T04:54:35.251Z,15.23
2019-02-22T04:57:04.113Z,12.67
2019-02-22T04:59:32.931Z,14.73
2019-02-22T05:02:01.708Z,14.57
2019-02-22T05:04:30.485Z,13.97
2019-02-22T05:06:59.273Z,13.77
2019-02-22T05:09:28.054Z,14.60
2019-02-22T05:11:57.096Z,14.57
2019-02-22T05:14:25.869Z,14.53
2019-02-22T05:16:54.674Z,14.27
2019-02-22T05:19:23.517Z,13.47
2019-02-22T05:21:52.395Z,15.40
2019-02-22T05:24:21.236Z,14.10
2019-02-22T05:26:50.020Z,13.60
2019-02-22T05:29:19.050Z,15.10
2019-02-22T05:31:47.842Z,13.67
2019-02-22T05:34:17.244Z,13.60
2019-02-22T05:36:46.031Z,12.43
2019-02-22T05:39:18.919Z,12.93
2019-02-22T05:41:45.392Z,13.17
2019-02-22T05:44:14.185Z,13.73
2019-02-22T05:46:43.246Z,11.00
2019-02-22T05:49:11.556Z,12.53
2019-02-22T05:51:40.336Z,11.03
2019-02-22T05:54:09.123Z,11.63
2019-02-22T05:56:37.912Z,12.07
2019-02-22T05:59:06.685Z,11.63
2019-02-22T06:01:35.469Z,13.37
2019-02-22T06:04:04.429Z,12.57
2019-02-22T06:06:33.211Z,12.60
2019-02-22T06:09:01.996Z,14.33
2019-02-22T06:11:30.794Z,12.93
2019-02-22T06:13:59.577Z,13.00
2019-02-22T06:16:28.362Z,12.53
2019-02-22T06:18:57.141Z,12.70
2019-02-22T06:21:25.933Z,13.97
2019-02-22T06:23:54.725Z,14.73
2019-02-22T06:26:23.610Z,15.37
2019-02-22T06:28:52.376Z,14.20
2019-02-22T06:31:21.155Z,15.97
2019-02-22T06:33:49.934Z,16.43
2019-02-22T06:36:18.796Z,17.03
2019-02-22T06:38:47.793Z,14.77
2019-02-22T06:41:16.654Z,14.83
2019-02-22T06:43:45.444Z,16.90
2019-02-22T06:46:14.221Z,15.13
2019-02-22T06:48:43.001Z,15.77
2019-02-22T06:51:11.768Z,17.40
2019-02-22T06:53:40.561Z,17.60
2019-02-22T06:56:09.342Z,18.17
2019-02-22T06:58:38.142Z,18.93
2019-02-22T07:01:06.998Z,18.20
2019-02-22T07:03:35.781Z,16.93
2019-02-22T07:06:05.685Z,19.80
2019-02-22T07:08:34.760Z,19.10
2019-02-22T07:11:15.052Z,19.10
2019-02-22T07:13:43.944Z,19.90
2019-02-22T07:16:12.977Z,18.97
2019-02-22T07:18:41.790Z,18.40
2019-02-22T07:21:10.565Z,19.57
2019-02-22T07:23:39.332Z,20.00
2019-02-22T07:26:08.096Z,19.37
2019-02-22T07:28:37.128Z,20.30
2019-02-22T07:31:06.057Z,17.80
2019-02-22T07:33:34.830Z,18.73
2019-02-22T07:36:03.600Z,19.57
2019-02-22T07:38:32.421Z,18.17
2019-02-22T07:41:01.200Z,19.33
2019-02-22T07:43:29.991Z,18.83
2019-02-22T07:45:58.820Z,18.77
2019-02-22T07:48:27.593Z,16.57
2019-02-22T07:50:58.107Z,19.73
2019-02-22T07:53:26.981Z,18.23
2019-02-22T07:55:55.775Z,18.13
2019-02-22T07:58:24.636Z,18.47
2019-02-22T08:00:53.458Z,18.47
2019-02-22T08:03:22.277Z,19.20
2019-02-22T08:05:51.060Z,19.70
2019-02-22T08:08:19.842Z,19.80
2019-02-22T08:10:48.645Z,19.33
2019-02-22T08:13:20.021Z,19.30
2019-02-22T08:15:48.092Z,19.20
2019-02-22T08:18:16.947Z,20.27
2019-02-22T08:20:45.817Z,20.37
2019-02-22T08:23:14.666Z,19.23
2019-02-22T08:25:43.472Z,22.03
2019-02-22T08:28:12.290Z,19.17
2019-02-22T08:30:41.162Z,20.13
2019-02-22T08:33:10.193Z,19.33
2019-02-22T08:35:39.017Z,19.30
2019-02-22T08:38:07.857Z,19.67
2019-02-22T08:40:36.836Z,20.33
2019-02-22T08:43:05.632Z,20.50
2019-02-22T08:45:33.997Z,19.60
2019-02-22T08:48:02.865Z,19.27
2019-02-22T08:50:31.663Z,20.70
2019-02-22T08:53:00.452Z,20.23
2019-02-22T08:55:29.265Z,18.17
2019-02-22T08:57:58.065Z,19.97
2019-02-22T09:00:26.946Z,19.73
2019-02-22T09:02:55.729Z,20.30
2019-02-22T09:05:24.534Z,21.80
2019-02-22T09:07:53.416Z,20.43
2019-02-22T09:10:22.470Z,20.13
2019-02-22T09:12:51.261Z,18.83
2019-02-22T09:15:20.109Z,21.97
2019-02-22T09:17:48.976Z,20.63
2019-02-22T09:20:17.773Z,21.50
2019-02-22T09:22:46.568Z,19.53
2019-02-22T09:25:15.510Z,21.93
2019-02-22T09:27:44.560Z,19.63
2019-02-22T09:30:13.502Z,17.97
2019-02-22T09:32:42.357Z,18.90
2019-02-22T09:35:11.435Z,19.50
2019-02-22T09:37:40.372Z,19.87
2019-02-22T09:40:10.269Z,20.43
2019-02-22T09:42:39.147Z,18.50
2019-02-22T09:45:08.100Z,18.23
2019-02-22T09:47:36.987Z,22.40
2019-02-22T09:50:07.352Z,20.97
2019-02-22T09:52:36.165Z,18.33
2019-02-22T09:55:05.651Z,20.30
2019-02-22T09:57:34.463Z,19.30
2019-02-22T10:00:03.589Z,18.30
2019-02-22T10:02:32.394Z,16.67
2019-02-22T10:05:01.180Z,17.03
2019-02-22T10:07:29.982Z,18.47
2019-02-22T10:09:58.769Z,16.63
2019-02-22T10:12:27.552Z,17.73
2019-02-22T10:14:56.340Z,18.30
2019-02-22T10:17:25.149Z,16.50
2019-02-22T10:19:53.929Z,16.57
2019-02-22T10:22:22.968Z,17.70
2019-02-22T10:24:51.776Z,15.43
2019-02-22T10:27:20.651Z,15.70
2019-02-22T10:29:49.712Z,16.30
2019-02-22T10:32:18.493Z,15.93
2019-02-22T10:34:47.529Z,17.00
2019-02-22T10:37:16.393Z,16.47
2019-02-22T10:39:45.194Z,14.93
2019-02-22T10:42:14.031Z,14.77
2019-02-22T10:44:42.818Z,13.93
2019-02-22T10:47:11.861Z,14.87
2019-02-22T10:49:40.656Z,14.13
2019-02-22T10:52:09.524Z,12.63
2019-02-22T10:54:38.320Z,12.97
2019-02-22T10:57:07.284Z,11.37
2019-02-22T10:59:36.328Z,14.10
2019-02-22T11:02:05.397Z,12.23
2019-02-22T11:04:37.562Z,13.50
2019-02-22T11:07:06.520Z,12.60
2019-02-22T11:09:35.400Z,15.23
2019-02-22T11:12:04.341Z,15.97
2019-02-22T11:14:33.209Z,13.60
2019-02-22T11:17:02.350Z,12.63
2019-02-22T11:19:31.180Z,11.93
2019-02-22T11:22:00.032Z,12.77
2019-02-22T11:24:28.995Z,12.00
2019-02-22T11:26:58.808Z,10.40
2019-02-22T11:29:27.848Z,10.00
2019-02-22T11:31:56.654Z,10.27
2019-02-22T11:34:25.493Z,8.60
2019-02-22T11:36:54.364Z,9.70
2019-02-22T11:39:23.228Z,8.37
2019-02-22T11:41:52.121Z,9.33
2019-02-22T11:44:20.906Z,8.17
2019-02-22T11:46:49.704Z,8.40
2019-02-22T11:49:18.536Z,8.00
2019-02-22T11:51:47.362Z,8.07
2019-02-22T11:54:16.197Z,8.23
2019-02-22T11:56:45.135Z,8.50
2019-02-22T11:59:14.041Z,7.30
2019-02-22T12:01:43.180Z,7.03
2019-02-22T12:04:11.981Z,6.90
2019-02-22T12:06:40.781Z,6.90
2019-02-22T12:09:09.597Z,7.53
2019-02-22T12:11:38.391Z,7.20
2019-02-22T12:14:07.181Z,7.03
2019-02-22T12:16:36.207Z,8.90
2019-02-22T12:19:05.183Z,7.80
2019-02-22T12:21:36.533Z,7.67
2019-02-22T12:24:05.392Z,8.73
2019-02-22T12:26:34.294Z,7.13
2019-02-22T12:29:03.161Z,7.77
2019-02-22T12:31:32.089Z,7.40
2019-02-22T12:34:00.872Z,6.80
2019-02-22T12:36:29.653Z,6.77
2019-02-22T12:38:58.435Z,6.43
2019-02-22T12:41:27.368Z,5.17
2019-02-22T12:43:56.249Z,5.73
2019-02-22T12:46:25.161Z,5.67
2019-02-22T12:48:53.928Z,4.30
2019-02-22T12:51:22.712Z,5.03
2019-02-22T12:53:51.573Z,4.77
2019-02-22T12:56:21.642Z,5.13
2019-02-22T12:58:50.933Z,4.87
2019-02-22T13:01:19.732Z,4.80
2019-02-22T13:03:48.589Z,5.07
2019-02-22T13:06:17.543Z,5.50
2019-02-22T13:08:46.338Z,5.47
2019-02-22T13:11:15.112Z,4.60
2019-02-22T13:13:43.909Z,3.93
2019-02-22T13:16:12.248Z,4.57
2019-02-22T13:18:41.108Z,5.10
2019-02-22T13:21:09.976Z,5.27
2019-02-22T13:23:38.301Z,5.50
2019-02-22T13:26:07.209Z,5.60
2019-02-22T13:28:36.089Z,4.43
2019-02-22T13:31:04.945Z,4.87
2019-02-22T13:33:34.001Z,4.90
2019-02-22T13:36:02.930Z,4.67
2019-02-22T13:38:31.696Z,4.50
2019-02-22T13:41:01.013Z,6.03
2019-02-22T13:43:30.125Z,6.63
2019-02-22T13:45:58.904Z,6.77
2019-02-22T13:48:27.752Z,6.70
2019-02-22T13:50:56.631Z,6.20
2019-02-22T13:53:25.481Z,5.60
2019-02-22T13:55:54.264Z,6.03
2019-02-22T13:58:23.033Z,5.67
2019-02-22T14:00:52.151Z,5.97
2019-02-22T14:03:21.049Z,5.83
2019-02-22T14:05:49.841Z,5.50
2019-02-22T14:08:18.632Z,5.30
2019-02-22T14:10:47.412Z,4.83
2019-02-22T14:13:16.180Z,5.30
2019-02-22T14:15:44.952Z,4.47
2019-02-22T14:18:13.743Z,5.03
2019-02-22T14:20:42.584Z,4.57
2019-02-22T14:23:11.437Z,2.70
2019-02-22T14:25:40.225Z,2.67
2019-02-22T14:28:09.053Z,3.40
2019-02-22T14:30:37.825Z,2.30
2019-02-22T14:33:06.749Z,2.80
2019-02-22T14:35:35.794Z,2.67
2019-02-22T14:38:06.559Z,2.60
2019-02-22T14:40:35.140Z,2.50
2019-02-22T14:43:04.104Z,2.50
2019-02-22T14:45:32.876Z,2.10
2019-02-22T14:48:01.984Z,2.20
2019-02-22T14:50:30.757Z,2.30
2019-02-22T14:52:59.547Z,2.03
2019-02-22T14:55:28.320Z,2.07
2019-02-22T14:57:57.102Z,2.60
2019-02-22T15:00:25.948Z,2.10
2019-02-22T15:02:54.737Z,1.87
2019-02-22T15:05:23.653Z,2.07
2019-02-22T15:07:52.809Z,2.10
2019-02-22T15:10:21.581Z,1.67
2019-02-22T15:12:50.358Z,2.40
2019-02-22T15:15:20.036Z,1.90
2019-02-22T15:18:00.166Z,1.50
2019-02-22T15:20:28.950Z,2.00
2019-02-22T15:22:57.718Z,2.33
2019-02-22T15:25:26.661Z,1.90
2019-02-22T15:27:55.536Z,1.50
2019-02-22T15:30:24.328Z,1.80
2019-02-22T15:32:53.179Z,1.70
2019-02-22T15:35:22.088Z,1.33
2019-02-22T15:37:51.116Z,2.27
2019-02-22T15:40:19.938Z,1.60
2019-02-22T15:42:48.732Z,1.87
2019-02-22T15:45:17.602Z,1.60
2019-02-22T15:47:48.667Z,1.50
2019-02-22T15:50:17.092Z,1.50
2019-02-22T15:52:46.884Z,2.60
2019-02-22T15:55:15.666Z,1.50
2019-02-22T15:57:44.532Z,1.77
2019-02-22T16:00:16.914Z,1.67
2019-02-22T16:02:45.726Z,1.30
2019-02-22T16:05:34.843Z,1.60
2019-02-22T16:08:03.697Z,2.60
2019-02-22T16:10:32.468Z,2.10
2019-02-22T16:13:01.637Z,1.87
2019-02-22T16:15:30.487Z,1.80
2019-02-22T16:17:59.332Z,2.03
2019-02-22T16:20:28.112Z,2.27
2019-02-22T16:22:56.876Z,2.77
2019-02-22T16:25:25.720Z,3.50
2019-02-22T16:27:54.538Z,1.67
2019-02-22T16:30:25.580Z,2.03
2019-02-22T16:32:54.389Z,3.30
2019-02-22T16:35:23.277Z,8.13
2019-02-22T16:37:52.121Z,1.70
2019-02-22T16:40:20.976Z,2.00
2019-02-22T16:42:50.113Z,1.57
2019-02-22T16:45:18.893Z,1.43
2019-02-22T16:47:47.657Z,1.70
2019-02-22T16:50:16.498Z,1.77
2019-02-22T16:52:45.536Z,1.50
2019-02-22T16:55:14.841Z,1.40
2019-02-22T16:57:43.604Z,1.70
2019-02-22T17:00:13.705Z,1.37
2019-02-22T17:02:42.721Z,1.20
2019-02-22T17:05:13.139Z,1.30
2019-02-22T17:07:41.910Z,1.60
2019-02-22T17:10:10.483Z,1.40
2019-02-22T17:12:39.400Z,1.47
2019-02-22T17:15:09.316Z,1.80
2019-02-22T17:17:38.219Z,1.93
2019-02-22T17:20:08.115Z,1.50
2019-02-22T17:22:36.953Z,1.60
2019-02-22T17:25:07.564Z,1.70
2019-02-22T17:27:36.337Z,1.60
2019-02-22T17:30:05.561Z,1.70
2019-02-22T17:32:34.349Z,2.40
2019-02-22T17:35:03.200Z,1.30
2019-02-22T17:37:32.090Z,2.47
2019-02-22T17:40:00.849Z,1.97
2019-02-22T17:42:29.669Z,4.43
2019-02-22T17:44:58.433Z,2.27
2019-02-22T17:47:27.232Z,2.53
2019-02-22T17:49:56.010Z,1.80
2019-02-22T17:52:24.780Z,1.80
2019-02-22T17:54:53.598Z,2.50
2019-02-22T17:57:22.381Z,2.33
2019-02-22T17:59:51.138Z,2.87
2019-02-22T18:02:19.981Z,3.40
2019-02-22T18:04:48.755Z,3.17
2019-02-22T18:07:17.597Z,3.43
2019-02-22T18:09:46.367Z,3.27
2019-02-22T18:12:15.131Z,2.97
2019-02-22T18:14:44.213Z,2.90
2019-02-22T18:17:13.001Z,2.90
2019-02-22T18:19:42.016Z,2.70
2019-02-22T18:22:10.843Z,2.90
2019-02-22T18:24:39.640Z,2.57
2019-02-22T18:27:08.424Z,2.47
2019-02-22T18:29:37.197Z,2.47
2019-02-22T18:32:05.990Z,2.43
2019-02-22T18:34:34.833Z,1.90
2019-02-22T18:37:03.727Z,2.80
2019-02-22T18:39:32.588Z,2.70
2019-02-22T18:42:01.397Z,3.10
2019-02-22T18:44:29.709Z,2.43
2019-02-22T18:46:58.560Z,2.70
2019-02-22T18:49:27.381Z,2.17
2019-02-22T18:51:56.156Z,2.90
2019-02-22T18:54:25.000Z,5.00
2019-02-22T18:56:53.772Z,3.53
2019-02-22T18:59:22.550Z,3.00
2019-02-22T19:01:51.615Z,3.23
2019-02-22T19:04:20.394Z,3.60
2019-02-22T19:06:49.167Z,2.83
2019-02-22T19:09:17.928Z,2.40
2019-02-22T19:11:46.741Z,2.40
2019-02-22T19:14:15.552Z,2.60
2019-02-22T19:16:44.570Z,2.70
2019-02-22T19:19:14.560Z,3.67
2019-02-22T19:21:43.492Z,17.33
2019-02-22T19:24:12.272Z,5.10
2019-02-22T19:26:41.081Z,2.10
2019-02-22T19:29:09.868Z,2.90
2019-02-22T19:31:38.637Z,2.77
2019-02-22T19:34:07.413Z,2.67
2019-02-22T19:36:36.269Z,2.40
2019-02-22T19:39:06.396Z,2.53
2019-02-22T19:41:35.189Z,2.40
2019-02-22T19:44:04.128Z,2.90
2019-02-22T19:46:33.060Z,2.20
2019-02-22T19:49:01.941Z,2.33
2019-02-22T19:51:30.712Z,2.63
2019-02-22T19:53:59.508Z,2.63
2019-02-22T19:56:28.393Z,2.63
2019-02-22T19:58:57.198Z,2.87
2019-02-22T20:01:26.000Z,2.20
2019-02-22T20:03:55.024Z,2.20
2019-02-22T20:06:23.805Z,1.93
2019-02-22T20:08:52.597Z,2.53
2019-02-22T20:11:21.532Z,1.37
2019-02-22T20:13:50.317Z,3.03
2019-02-22T20:16:19.184Z,2.17
2019-02-22T20:18:47.961Z,2.43
2019-02-22T20:21:16.745Z,2.80
2019-02-22T20:23:45.528Z,1.57
2019-02-22T20:26:14.317Z,2.20
2019-02-22T20:28:43.180Z,2.10
2019-02-22T20:31:19.944Z,2.10
2019-02-22T20:33:42.719Z,2.20
2019-02-22T20:36:11.496Z,1.70
2019-02-22T20:38:40.284Z,1.97
2019-02-22T20:41:09.068Z,2.27
2019-02-22T20:43:37.855Z,1.73
2019-02-22T20:46:06.641Z,1.80
2019-02-22T20:48:35.417Z,2.30
2019-02-22T20:51:04.247Z,2.13
2019-02-22T20:53:33.028Z,1.93
2019-02-22T20:56:01.813Z,2.67
2019-02-22T20:58:30.833Z,2.03
2019-02-22T21:00:59.692Z,3.50
2019-02-22T21:03:28.557Z,3.77
2019-02-22T21:05:57.336Z,4.47
2019-02-22T21:08:25.648Z,3.40
2019-02-22T21:10:54.509Z,4.10
2019-02-22T21:13:23.296Z,4.33
2019-02-22T21:15:52.100Z,4.73
2019-02-22T21:18:20.939Z,5.23
2019-02-22T21:20:49.741Z,5.17
2019-02-22T21:23:18.604Z,5.20
2019-02-22T21:25:47.705Z,4.80
2019-02-22T21:28:16.485Z,5.57
2019-02-22T21:30:45.264Z,5.80
2019-02-22T21:33:14.048Z,4.27
2019-02-22T21:35:42.830Z,4.57
2019-02-22T21:38:11.680Z,4.93
2019-02-22T21:40:40.471Z,4.50
2019-02-22T21:43:09.237Z,4.50
2019-02-22T21:45:38.854Z,4.23
2019-02-22T21:48:07.965Z,4.97
2019-02-22T21:50:36.736Z,5.00
2019-02-22T21:53:05.601Z,4.67
2019-02-22T21:55:34.381Z,5.53
2019-02-22T21:58:03.231Z,5.27
2019-02-22T22:00:32.103Z,6.13
2019-02-22T22:03:00.877Z,5.70
2019-02-22T22:05:29.790Z,5.20
2019-02-22T22:07:58.563Z,5.93
2019-02-22T22:10:27.340Z,5.70
2019-02-22T22:12:56.120Z,6.53
2019-02-22T22:15:24.992Z,6.80
2019-02-22T22:17:53.758Z,6.70
2019-02-22T22:20:22.618Z,6.97
2019-02-22T22:22:51.480Z,7.23
2019-02-22T22:25:20.322Z,7.33
2019-02-22T22:27:49.140Z,5.80
2019-02-22T22:30:17.924Z,7.90
2019-02-22T22:32:46.971Z,7.50
2019-02-22T22:35:16.164Z,7.47
2019-02-22T22:37:45.031Z,4.67
2019-02-22T22:40:13.869Z,5.00
2019-02-22T22:42:42.657Z,3.83
2019-02-22T22:45:12.016Z,4.50
2019-02-22T22:47:40.789Z,3.40
2019-02-22T22:50:11.181Z,4.83
2019-02-22T22:52:39.997Z,4.50
2019-02-22T22:55:09.097Z,5.17
2019-02-22T22:57:37.888Z,5.23
2019-02-22T23:00:27.801Z,4.50
2019-02-22T23:02:56.745Z,5.43
2019-02-22T23:05:25.668Z,3.90
2019-02-22T23:07:54.463Z,4.60
2019-02-22T23:10:23.304Z,4.90
2019-02-22T23:12:52.099Z,5.40
2019-02-22T23:15:20.496Z,5.83
2019-02-22T23:17:49.280Z,8.87
2019-02-22T23:20:18.184Z,8.10
2019-02-22T23:22:46.979Z,4.83
2019-02-22T23:25:15.750Z,5.70
2019-02-22T23:27:44.541Z,6.13
2019-02-22T23:30:13.513Z,4.43
2019-02-22T23:32:42.292Z,5.87
2019-02-22T23:35:11.135Z,5.37
2019-02-22T23:37:39.920Z,5.97
2019-02-22T23:40:09.005Z,4.43
2019-02-22T23:42:37.804Z,4.13
2019-02-22T23:45:06.770Z,4.43
2019-02-22T23:47:35.826Z,4.90
2019-02-22T23:50:04.758Z,4.37
2019-02-22T23:52:34.008Z,4.23
2019-02-22T23:55:02.993Z,3.80
2019-02-22T23:57:31.782Z,3.73
